Miller, Nebraska
Current Conditions -  °F | °C
As of 9:55 AM on Friday 31 Oct 2014 (Local Time) from KLXN Reporting Station
Broken Clouds Broken Clouds  
Wind Chill: -4°   Ceiling: 1600
Heat Index:   Visibility: 10mi
Dew Point: -4°   Wind: 6mph
Humidity: 76%   Direction: 100°E
Pressure: 30.56"   Gusts: NA
Location:  40.93°N, 99.39°W
Report Text: KLXN 311455Z AUTO 10005KT 10SM BKN016 00/M04 A3056 RMK AO2 T10051043
Loading
Personal Weather Stations






























Interactive Weather Map
Tropical Storm Tracking
New forecast layout! Learn more

10-Day Weather Forecast

Advertisements
Track Severe Weather on mobile